Tiempo atmosférico en la estación meteorológica de Castellote, Teruel (755 m.)



Fecha
DESCASC
Temp. máxima en grados centígrados (hora)
DESCASC
Temp. mínima en grados centígrados (hora)
DESCASC
Temp. media en grados centígrados
DESCASC
Racha de viento máxima en m/sg (hora)
DESCASC
Velocidad máxima media en intervalos de 10 minutos(hora)
DESCASC
Precipitaciones diarias en mm
DESCASC
Precipitaciones de 00:00 a 06:00 en mm
DESCASC
Precipitaciones de 06:00 a 12:00 en mm
DESCASC
Precipitaciones de 12:00 a 18:00 en mm
DESCASC
Precipitaciones de 18:00 a 24:00 en mm
DESCASC
27-01-2020 11.9 (15:40) 2.7 (00:20) 7.3 6.39 (21:10) 3.33 (21:00) 0 0 0 0 0
26-01-2020 10.5 (16:00) 3.2 (23:59) 6.9 10.56 (17:00) 7.22 (17:00) 0.6 0.6 0 0 0
25-01-2020 10.4 (13:40) 2.3 (00:00) 6.3 3.61 (07:10) 2.5 (07:10) 1.2 0 0 0 1.2
24-01-2020 10.5 (14:20) 2.3 (00:00) 6.4 3.89 (02:10) 2.22 (18:50) 0 0 0 0 0
23-01-2020 8.8 (14:30) 1 (00:00) 4.9 4.44 (16:00) 2.22 (21:40) 0.4 0.4 0 0 0
22-01-2020 3.5 (14:20) 0.5 (00:00) 2 6.11 (09:10) 3.06 (09:10) -- -- 0 0.4 2.6
21-01-2020 3.2 (15:50) -0.6 (-00:0) 1.3 -- (--) -- (--) -- -- -- -- --
20-01-2020 1.3 (00:00) -2.2 (-00:0) -0.5 -- (--) -- (--) -- -- -- -- --
19-01-2020 7.5 (00:00) 0.9 (00:00) 4.2 12.78 (19:50) 6.94 (19:10) 8.6 0.2 5.4 3 0
18-01-2020 13.2 (13:40) 2.3 (00:00) 7.7 13.33 (23:59) 6.39 (23:59) 0 0 0 0 0
17-01-2020 13.3 (13:20) 5 (00:00) 9.2 16.67 (14:40) 10.83 (14:40) 0 0 0 0 0
16-01-2020 15.9 (15:20) 4.8 (00:00) 10.3 7.22 (15:30) 2.78 (15:30) 0 0 0 0 0
15-01-2020 15.4 (15:50) 0.9 (00:00) 8.1 9.72 (16:10) 5.28 (17:50) 0 0 0 0 0
14-01-2020 13.7 (13:50) 1.6 (00:00) 7.6 6.39 (15:20) 3.33 (15:30) 0 0 0 0 0
13-01-2020 13.6 (14:30) 0 (00:00) 6.8 4.72 (15:30) 2.78 (15:20) 0 0 0 0 0
12-01-2020 12.8 (16:30) 0.8 (08:20) 6.8 6.39 (17:00) 2.5 (16:20) 0 0 0 0 0
11-01-2020 11.8 (15:00) 1.4 (00:00) 6.6 11.11 (01:10) 5 (01:30) 0 0 0 0 0
10-01-2020 10.5 (02:00) 4.1 (00:00) 7.3 16.39 (11:40) 8.89 (11:50) 0 0 0 0 0
09-01-2020 16.4 (16:10) 2.8 (00:00) 9.6 4.72 (21:30) 2.5 (08:40) 0 0 0 0 0
08-01-2020 14.6 (13:50) 5.6 (00:00) 10.1 4.72 (16:30) 2.5 (18:50) 0 0 0 0 0
07-01-2020 14.4 (16:40) 1.2 (00:00) 7.8 5 (13:30) 2.22 (05:00) 0 0 0 0 0
06-01-2020 15.4 (15:20) 2.6 (00:00) 9 5.56 (15:50) 1.94 (05:30) 0 0 0 0 0
05-01-2020 14.1 (15:30) 0.4 (00:00) 7.3 3.89 (14:10) 1.94 (09:50) 0 0 0 0 0
04-01-2020 9.4 (16:00) 4.1 (00:00) 6.7 9.17 (11:40) 5 (11:40) 0 0 0 0 0
03-01-2020 10.6 (13:50) 2.3 (00:00) 6.5 8.89 (21:30) 3.61 (23:00) 0 0 0 0 0
02-01-2020 13 (15:40) 0.9 (00:00) 6.9 3.06 (06:30) 2.22 (06:50) 0 0 0 0 0
01-01-2020 12.6 (15:30) -2.4 (-00:0) 5.1 3.06 (15:40) 1.39 (08:40) 0 0 0 0 0
31-12-2019 7.3 (15:40) -4 (-00:0) 1.7 4.72 (14:30) 1.67 (15:00) 0 0 0 0 0
30-12-2019 -- (--) -- (--) -- -- (--) -- (--) -- 0 0 0 --

Gráficas

Temp. máximas Temp. mínimas Temp. medias Precipitaciones Rachas de viento máximas Velocidades máximas media en intervalos de 10 minutos

Datos horarios

Fecha y hora oficial Temperatura (ºC) Velocidad del viento (km/h) Dirección del viento Racha (km/h) Dirección de racha Precipitación (mm) Presión (hPa) Tendencia (hPa) Humedad (%)
2020-01-28 23:00:00 11.4 10 Oeste 21 Oeste 0 -- -- 71
2020-01-28 22:00:00 11.3 5 Oeste 18 Sudoeste 0 -- -- 70
2020-01-28 21:00:00 11.4 10 Sudoeste 21 Sudoeste 0 -- -- 70
2020-01-28 20:00:00 11.4 3 Sudoeste 36 Sudoeste 0 -- -- 67
2020-01-28 19:00:00 12 18 Sudoeste 35 Sur 0 -- -- 66
2020-01-28 18:00:00 12.4 17 Sudoeste 34 Sudoeste 0 -- -- 63
2020-01-28 17:00:00 13.7 24 Sudoeste 38 Sudoeste 0 -- -- 59
2020-01-28 16:00:00 14.4 26 Sudoeste 39 Sudoeste 0 -- -- 57
2020-01-28 15:00:00 14.3 28 Sudoeste 45 Sudoeste 0 -- -- 58
2020-01-28 14:00:00 14.8 17 Sudoeste 49 Sur 0 -- -- 57
2020-01-28 13:00:00 13.6 31 Sudoeste 46 Sudoeste 0 -- -- 59
2020-01-28 12:00:00 13.2 18 Sudoeste 47 Sudoeste 0 -- -- 60
2020-01-28 11:00:00 12.3 31 Sudoeste 44 Sudoeste 0 -- -- 63
2020-01-28 10:00:00 11.4 17 Sudoeste 40 Sudoeste 0 -- -- 64
2020-01-28 09:00:00 9.7 10 Sudoeste 18 Sudoeste 0 -- -- 68
2020-01-28 08:00:00 9.6 6 Sudoeste 17 Oeste 0 -- -- 68
2020-01-28 07:00:00 9.4 16 Oeste 23 Oeste 0 -- -- 68
2020-01-28 06:00:00 9.2 6 Oeste 20 Sudoeste 0 -- -- 69
2020-01-28 05:00:00 9.6 14 Sudoeste 24 Sudoeste 0 -- -- 67
2020-01-28 04:00:00 9.2 3 Sudoeste 24 Sudoeste 0 -- -- 67
2020-01-28 03:00:00 8.9 14 Sudoeste 26 Sudoeste 0 -- -- 67
2020-01-28 02:00:00 8 3 Sudeste 21 Sur 0 -- -- 69
2020-01-28 01:00:00 8.6 10 Sudoeste 21 Sudoeste 0 -- -- 68
2020-01-28 00:00:00 8.5 7 Sudoeste 19 Oeste 0 -- -- 66
2020-01-27 23:00:00 8.2 2 Sudeste 11 Este 0 -- -- 68
2020-01-27 22:00:00 8.3 5 Este 23 Sudoeste 0 -- -- 67
2020-01-27 21:00:00 8.6 12 Sudoeste 21 Sudoeste 0 -- -- 65
2020-01-27 20:00:00 7.7 9 Norte 18 Sudoeste 0 -- -- 65
2020-01-27 19:00:00 8 7 Sudoeste 11 Oeste 0 -- -- 64
2020-01-27 18:00:00 8.4 0 Calma 18 Norte 0 -- -- 65
2020-01-27 17:00:00 10.6 6 Oeste 16 Sudoeste 0 -- -- 58
2020-01-27 16:00:00 11.5 6 Sudeste 11 Sur 0 -- -- 54
2020-01-27 15:00:00 11 2 Sudoeste 14 Este 0 -- -- 58
2020-01-27 14:00:00 10.5 6 Norte 15 Norte 0 -- -- 58
2020-01-27 13:00:00 9.9 4 Sudeste 11 Sudeste 0 -- -- 55
2020-01-27 12:00:00 8.9 2 Sudoeste 7 Sudoeste 0 -- -- 59
2020-01-27 11:00:00 6.8 2 Sudoeste 8 Sudoeste 0 -- -- 64
2020-01-27 10:00:00 5.1 2 Sur 13 Oeste 0 -- -- 70
2020-01-27 09:00:00 4.6 8 Sudoeste 10 Sudoeste 0 -- -- 71
2020-01-27 08:00:00 4 3 Este 8 Sudeste 0 -- -- 75
2020-01-27 07:00:00 3.8 5 Sudeste 8 Sudeste 0 -- -- 76
2020-01-27 06:00:00 4.1 2 Este 7 Este 0 -- -- 75
2020-01-27 05:00:00 3.8 5 Este 8 Este 0 -- -- 77
2020-01-27 04:00:00 3.2 2 Este 9 Este 0 -- -- 78
2020-01-27 03:00:00 3.1 2 Este 5 Este 0 -- -- 77
2020-01-27 02:00:00 3 3 Este 6 Este 0 -- -- 78
2020-01-27 01:00:00 2.9 4 Este 10 Este 0 -- -- 78
2020-01-27 00:00:00 3.2 5 Este 8 Este 0 -- -- 77
2020-01-26 23:00:00 3.5 5 Este 8 Este 0 -- -- 77
2020-01-26 22:00:00 4.8 2 Sudeste 6 Sudeste 0 -- -- 70
2020-01-26 21:00:00 5.6 0 Calma 17 Oeste 0 -- -- 67
2020-01-26 20:00:00 6.5 13 Oeste 23 Sudoeste 0 -- -- 62
2020-01-26 19:00:00 6.8 18 Oeste 24 Oeste 0 -- -- 64
2020-01-26 18:00:00 7.3 12 Oeste 31 Oeste 0 -- -- 62
2020-01-26 17:00:00 8.2 26 Oeste 38 Sudoeste 0 -- -- 61
2020-01-26 16:00:00 10.5 4 Oeste 27 Noroeste 0 -- -- 58
2020-01-26 15:00:00 10 8 Sur 25 Noroeste 0 -- -- 64
2020-01-26 14:00:00 8.9 14 Oeste 37 Oeste 0 -- -- 68
2020-01-26 13:00:00 8.3 14 Oeste 27 Norte 0 -- -- 71
2020-01-26 12:00:00 6.8 10 Oeste 24 Oeste 0 -- -- 77
2020-01-26 11:00:00 6.4 4 Oeste 12 Norte 0 -- -- 83
2020-01-26 10:00:00 4.9 4 Sudoeste 14 Noroeste 0 -- -- 92
2020-01-26 09:00:00 4 3 Este 5 Nordeste 0 -- -- 92
2020-01-26 08:00:00 4.1 0 Calma 2 Este 0 -- -- 94
2020-01-26 07:00:00 3.7 0 Calma 5 Este 0 -- -- 93
2020-01-26 06:00:00 4.1 3 Nordeste 4 Este 0 -- -- 92
2020-01-26 05:00:00 3.7 2 Sudoeste 6 Este 0.4 -- -- 93
2020-01-26 04:00:00 4.3 4 Este 8 Nordeste 0.2 -- -- 90
2020-01-26 03:00:00 4.1 4 Este 8 Nordeste 0 -- -- 92
2020-01-26 02:00:00 3.9 3 Sudeste 8 Este 0 -- -- 92
2020-01-26 01:00:00 4.3 0 Calma 7 Sudeste 0 -- -- 90
2020-01-26 00:00:00 5.4 4 Sudeste 9 Sudoeste 0 -- -- 88
2020-01-25 23:00:00 5.2 0 Calma 8 Sudeste 0.2 -- -- 90
2020-01-25 22:00:00 6 4 Sudoeste 10 Sudoeste 0.2 -- -- 90
2020-01-25 21:00:00 5.6 0 Calma 6 Sudeste 0.4 -- -- 90
2020-01-25 20:00:00 6.4 3 Sudeste 5 Sudoeste 0.4 -- -- 86
2020-01-25 19:00:00 7 3 Sudoeste 6 Sudoeste 0 -- -- 83
2020-01-25 18:00:00 7.3 2 Sudoeste 5 Sudoeste 0 -- -- 82
2020-01-25 17:00:00 8.5 2 Sudoeste 8 Sudeste 0 -- -- 77
2020-01-25 16:00:00 8.5 3 Sudeste 13 Sudeste 0 -- -- 77
2020-01-25 15:00:00 10.1 4 Este 10 Este 0 -- -- 71
2020-01-25 14:00:00 10 0 Calma 6 Sur 0 -- -- 71
2020-01-25 13:00:00 9.2 3 Sudoeste 9 Sur 0 -- -- 72
2020-01-25 12:00:00 9.5 5 Sur 12 Sudoeste 0 -- -- 69
2020-01-25 11:00:00 6.4 3 Sur 6 Este 0 -- -- 79
2020-01-25 10:00:00 5.3 3 Sudeste 6 Sudoeste 0 -- -- 79
2020-01-25 09:00:00 4.8 3 Sur 6 Sur 0 -- -- 83
2020-01-25 08:00:00 4.1 2 Sudoeste 13 Este 0 -- -- 84
2020-01-25 07:00:00 3.2 3 Sudeste 8 Sur 0 -- -- 84
2020-01-25 06:00:00 4.8 4 Este 8 Este 0 -- -- 80
2020-01-25 05:00:00 5.2 3 Sudeste 6 Este 0 -- -- 80
2020-01-25 04:00:00 4 5 Este 9 Este 0 -- -- 81
2020-01-25 03:00:00 3.4 4 Este 7 Nordeste 0 -- -- 84
2020-01-25 02:00:00 3 6 Este 9 Nordeste 0 -- -- 88
2020-01-25 01:00:00 2.5 6 Este 8 Este 0 -- -- 89
2020-01-25 00:00:00 2.9 5 Este 7 Este 0 -- -- 88
2020-01-24 23:00:00 3.8 0 Calma 5 Nordeste 0 -- -- 84
2020-01-24 22:00:00 3.6 0 Calma 6 Sur 0 -- -- 83
2020-01-24 21:00:00 4.1 0 Calma 6 Nordeste 0 -- -- 82
2020-01-24 20:00:00 4.9 3 Nordeste 9 Oeste 0 -- -- 80
2020-01-24 19:00:00 5.7 6 Oeste 10 Oeste 0 -- -- 77
2020-01-24 18:00:00 6.5 0 Calma 7 Norte 0 -- -- 74
2020-01-24 17:00:00 7.5 5 Norte 11 Norte 0 -- -- 70
2020-01-24 16:00:00 9.2 3 Norte 8 Nordeste 0 -- -- 64
2020-01-24 15:00:00 9.3 3 Oeste 8 Sudoeste 0 -- -- 58
2020-01-24 14:00:00 9.2 3 Sudeste 4 Este 0 -- -- 61
2020-01-24 13:00:00 9.2 0 Calma 6 Sudoeste 0 -- -- 62
2020-01-24 12:00:00 8.5 3 Sudeste 10 Sudeste 0 -- -- 64
2020-01-24 11:00:00 6.3 3 Este 6 Este 0 -- -- 72
2020-01-24 10:00:00 4.4 4 Este 8 Este 0 -- -- 80
2020-01-24 09:00:00 2.7 2 Sudeste 8 Este 0 -- -- 87
2020-01-24 08:00:00 2.4 3 Este 11 Este 0 -- -- 88
2020-01-24 07:00:00 2.3 6 Nordeste 9 Este 0 -- -- 89
2020-01-24 06:00:00 3.7 3 Nordeste 5 Este 0 -- -- 85
2020-01-24 05:00:00 3.8 0 Calma 8 Sudeste 0 -- -- 85
2020-01-24 04:00:00 3.4 3 Este 7 Sur 0 -- -- 87
2020-01-24 03:00:00 4.8 6 Sudoeste 14 Sudoeste 0 -- -- 84
2020-01-24 02:00:00 2.8 3 Sudoeste 10 Sudoeste 0 -- -- 92
2020-01-24 01:00:00 3.5 5 Sur 9 Sudeste 0 -- -- 90
2020-01-24 00:00:00 4.2 3 Sur 6 Sudeste 0 -- -- 89
2020-01-23 23:00:00 4.7 2 Sur 7 Sudoeste 0 -- -- 87
2020-01-23 22:00:00 4.9 4 Sudoeste 13 Sudoeste 0 -- -- 86
2020-01-23 21:00:00 4.4 2 Sudoeste 3 Sudoeste 0 -- -- 89
2020-01-23 20:00:00 4.3 0 Calma 7 Nordeste 0 -- -- 91
2020-01-23 19:00:00 4.5 0 Calma 15 Norte 0 -- -- 88
2020-01-23 18:00:00 4.8 6 Norte 15 Norte 0 -- -- 87
2020-01-23 17:00:00 6 5 Norte 14 Norte 0 -- -- 81
2020-01-23 16:00:00 6.9 7 Norte 16 Norte 0 -- -- 74
2020-01-23 15:00:00 8.5 3 Norte 12 Norte 0 -- -- 73
2020-01-23 14:00:00 8.5 0 Calma 10 Noroeste 0 -- -- 74
2020-01-23 13:00:00 7.9 0 Calma 8 Este 0 -- -- 78
2020-01-23 12:00:00 7.7 0 Calma 3 Sur 0 -- -- 76
2020-01-23 11:00:00 4.8 4 Este 6 Este 0 -- -- 87
2020-01-23 10:00:00 3.5 3 Este 5 Este 0 -- -- 97
2020-01-23 09:00:00 2 2 Este 6 Este 0 -- -- 98
2020-01-23 08:00:00 1.7 3 Nordeste 6 Norte 0 -- -- 98
2020-01-23 07:00:00 1.5 3 Sudeste 6 Este 0 -- -- 98
2020-01-23 06:00:00 1.4 0 Calma 5 Este 0 -- -- 98
2020-01-23 05:00:00 1.7 0 Calma 3 Oeste 0 -- -- 98
2020-01-23 04:00:00 1.5 0 Calma 5 Este 0 -- -- 98
2020-01-23 03:00:00 1.9 4 Oeste 6 Oeste 0 -- -- 98
2020-01-23 02:00:00 1.6 0 Calma 6 Este 0 -- -- 98
2020-01-23 01:00:00 1.4 5 Este 11 Noroeste 0.4 -- -- 97
2020-01-23 00:00:00 2 3 Este 8 Oeste 2 -- -- 98
2020-01-22 23:00:00 1.7 3 Nordeste 5 Este 0.4 -- -- 98
2020-01-22 22:00:00 1.8 0 Calma 5 Oeste 0 -- -- 98
2020-01-22 21:00:00 1.8 0 Calma 9 Norte 0 -- -- 97
2020-01-22 20:00:00 1.9 0 Calma 6 Norte 0 -- -- 98
2020-01-22 19:00:00 1.8 2 Sudeste 6 Este 0.2 -- -- 97
2020-01-22 18:00:00 2.1 3 Sudoeste 12 Norte 0.4 -- -- 97
2020-01-22 17:00:00 2 6 Norte 13 Nordeste 0 -- -- 97
2020-01-22 16:00:00 3 0 Calma 4 Este 0 -- -- 97
2020-01-22 15:00:00 3.2 0 Calma 4 Sur 0 -- -- 97
2020-01-22 14:00:00 3.1 0 Calma 5 Oeste 0 -- -- 98
2020-01-22 13:00:00 2.8 0 Calma 4 Oeste 0 -- -- 97
2020-01-22 12:00:00 2.6 0 Calma 5 Sudoeste 0 -- -- 97
2020-01-22 11:00:00 1.8 3 Oeste 12 Este 0 -- -- 98
2020-01-22 10:00:00 1.3 2 Norte 22 Este 0 -- -- 98
2020-01-22 09:00:00 1.7 6 Noroeste 10 Oeste 0 -- -- 98
2020-01-22 08:00:00 1.1 2 Sudeste 4 Sudeste 0 -- -- 98
2020-01-22 07:00:00 0.6 0 Calma 5 Este 0 -- -- 98
2020-01-22 06:00:00 0.5 0 Calma 5 Sudeste 0 -- -- 98
2020-01-22 05:00:00 0.9 0 Calma 3 Este 0 -- -- 98
2020-01-22 04:00:00 0.7 0 Calma 4 Nordeste -- -- -- 97
2020-01-22 03:00:00 0.7 0 Calma 5 Nordeste -- -- -- 97
2020-01-22 02:00:00 0.5 4 Este 6 Este -- -- -- 97
2020-01-22 01:00:00 0.6 0 Calma 6 Este -- -- -- 97
2020-01-22 00:00:00 0.6 3 Nordeste 5 Este -- -- -- 97
2020-01-21 23:00:00 0.4 2 Sudeste 9 Sur -- -- -- 97
2020-01-21 22:00:00 1.3 3 Norte 19 Noroeste -- -- -- 98
2020-01-21 21:00:00 1.2 3 Sur 15 Noroeste -- -- -- 97
2020-01-21 20:00:00 0.8 2 Sudoeste 6 Sudeste -- -- -- 97
2020-01-21 19:00:00 2 5 Sudoeste 16 Sudoeste -- -- -- 97
2020-01-21 18:00:00 2.1 4 Sudoeste 13 Sudoeste -- -- -- 97
2020-01-21 17:00:00 2.3 10 Sudoeste 27 Sur -- -- -- 97
2020-01-21 16:00:00 1.5 8 Sudeste 24 Noroeste -- -- -- 94
2020-01-21 15:00:00 0.2 3 Sudoeste 24 Oeste 2.4 -- -- 96
2020-01-21 14:00:00 0.4 -- -- -- -- 1 -- -- 97
2020-01-21 13:00:00 0.9 -- -- -- -- 0 -- -- 97
2020-01-21 12:00:00 -0.1 -- -- -- -- 0 -- -- 97
2020-01-21 11:00:00 0.1 -- -- -- -- 0 -- -- 97
2020-01-21 10:00:00 0.1 -- -- -- -- 0 -- -- 97
2020-01-21 09:00:00 -0.3 -- -- -- -- 0.2 -- -- 97
2020-01-21 08:00:00 -0.5 -- -- -- -- 0 -- -- 96
2020-01-21 07:00:00 -0.5 -- -- -- -- 0.2 -- -- 96
2020-01-21 06:00:00 -0.3 -- -- -- -- 0.2 -- -- 96
2020-01-21 05:00:00 -0.2 -- -- -- -- 0.2 -- -- 96
2020-01-21 04:00:00 -0.3 -- -- -- -- 0.2 -- -- 96
2020-01-21 03:00:00 -0.5 -- -- -- -- 0.2 -- -- 96
2020-01-21 02:00:00 -0.4 -- -- -- -- 0.2 -- -- 96
2020-01-21 01:00:00 -0.3 -- -- -- -- 0.2 -- -- 96
2020-01-21 00:00:00 0 -- -- -- -- 0.2 -- -- 96
2020-01-20 23:00:00 0 -- -- -- -- 0.4 -- -- 96
2020-01-20 22:00:00 0 -- -- -- -- 0.8 -- -- 96
2020-01-20 21:00:00 0 -- -- -- -- 1 -- -- 96
2020-01-20 20:00:00 -0.3 -- -- -- -- 0.8 -- -- 96
2020-01-20 19:00:00 -0.3 -- -- -- -- 1.2 -- -- 95
2020-01-20 18:00:00 -0.5 -- -- -- -- 1 -- -- 95
2020-01-20 17:00:00 -0.5 -- -- -- -- 1.8 -- -- 94
2020-01-20 16:00:00 -0.3 -- -- -- -- 1.4 -- -- 93
2020-01-20 15:00:00 -0.3 -- -- -- -- 1.2 -- -- 92
2020-01-20 14:00:00 -0.4 -- -- -- -- 1 -- -- 91
2020-01-20 13:00:00 -0.5 -- -- -- -- 0.8 -- -- 91
2020-01-20 12:00:00 -1.1 4 Sudoeste 14 Noroeste 1.4 -- -- 93
2020-01-20 11:00:00 -1.7 3 Sur 17 Noroeste 1.8 -- -- 93
2020-01-20 10:00:00 -1.9 3 Nordeste 21 Noroeste 1 -- -- 93
2020-01-20 09:00:00 -1.9 4 Sudoeste 34 Noroeste 0.4 -- -- 90
2020-01-20 08:00:00 -2.1 13 Oeste 27 Oeste 1.6 -- -- 91
2020-01-20 07:00:00 -1.7 6 Oeste 34 Oeste 0.2 -- -- 86
2020-01-20 06:00:00 -0.4 4 Sudeste 24 Oeste 0 -- -- 70
2020-01-20 05:00:00 -0.4 8 Oeste 33 Oeste 0 -- -- 67
2020-01-20 04:00:00 -0.3 10 Oeste 41 Noroeste 0 -- -- 65
2020-01-20 03:00:00 0 12 Noroeste 28 Norte 0 -- -- 65
2020-01-20 02:00:00 0.5 16 Noroeste 39 Noroeste 0 -- -- 63
2020-01-20 01:00:00 1.1 9 Oeste 31 Noroeste 0 -- -- 62
2020-01-20 00:00:00 1.3 12 Noroeste 40 Noroeste 0 -- -- 65
2020-01-19 23:00:00 1 13 Noroeste 30 Oeste 0 -- -- 66
2020-01-19 22:00:00 1.1 4 Sudeste 26 Oeste 0 -- -- 65
2020-01-19 21:00:00 1.1 7 Nordeste 36 Oeste 0 -- -- 70
2020-01-19 20:00:00 1.8 22 Oeste 46 Oeste 0 -- -- 69
2020-01-19 19:00:00 2.5 12 Oeste 33 Sudoeste 0 -- -- 73
2020-01-19 18:00:00 3.1 13 Oeste 26 Noroeste 0 -- -- 78
2020-01-19 17:00:00 3.4 8 Este 29 Noroeste 0 -- -- 84
2020-01-19 16:00:00 3.2 13 Oeste 32 Oeste 0 -- -- 86
2020-01-19 15:00:00 3.2 12 Oeste 41 Sudoeste 0 -- -- 93
2020-01-19 14:00:00 2 6 Sudoeste 27 Oeste 1.2 -- -- 96
2020-01-19 13:00:00 1 5 Sudeste 21 Oeste 1.8 -- -- 93
2020-01-19 12:00:00 1.5 9 Oeste 22 Noroeste 2.2 -- -- 91
2020-01-19 11:00:00 2.1 4 Sur 30 Noroeste 1.2 -- -- 90
2020-01-19 10:00:00 2.8 20 Noroeste 39 Noroeste 1 -- -- 91
2020-01-19 09:00:00 3.1 5 Este 31 Norte 1 -- -- 89
2020-01-19 08:00:00 3.3 13 Oeste 32 Oeste 0 -- -- 89
2020-01-19 07:00:00 3.3 13 Oeste 30 Norte 0 -- -- 88
2020-01-19 06:00:00 3.8 9 Noroeste 31 Oeste 0 -- -- 83
2020-01-19 05:00:00 4.1 10 Oeste 26 Noroeste 0 -- -- 81
2020-01-19 04:00:00 4.4 7 Sudoeste 27 Noroeste 0 -- -- 78
2020-01-19 03:00:00 5.1 10 Noroeste 26 Norte 0 -- -- 78
2020-01-19 02:00:00 6.4 8 Noroeste 25 Oeste 0 -- -- 75
2020-01-19 01:00:00 6.8 10 Este 37 Oeste 0.2 -- -- 75
2020-01-19 00:00:00 7.5 23 Oeste 48 Oeste 0 -- -- 77
2020-01-18 23:00:00 6.6 5 Sudoeste 10 Oeste 0 -- -- 72
2020-01-18 22:00:00 7.9 0 Calma 14 Norte 0 -- -- 66
2020-01-18 21:00:00 8.9 3 Norte 15 Norte 0 -- -- 64
2020-01-18 20:00:00 9 4 Este 8 Sudeste 0 -- -- 61
2020-01-18 19:00:00 9.1 6 Sudoeste 10 Sudoeste 0 -- -- 58
2020-01-18 18:00:00 10.1 3 Norte 10 Norte 0 -- -- 58
2020-01-18 17:00:00 10.6 4 Norte 12 Norte 0 -- -- 51
2020-01-18 16:00:00 11.2 3 Este 20 Nordeste 0 -- -- 48
2020-01-18 15:00:00 11.4 7 Norte 21 Norte 0 -- -- 45
2020-01-18 14:00:00 13.2 4 Este 17 Norte 0 -- -- 46
2020-01-18 13:00:00 9.9 2 Noroeste 6 Nordeste 0 -- -- 47
2020-01-18 12:00:00 7.2 2 Sudoeste 6 Sur 0 -- -- 55
2020-01-18 11:00:00 6.1 0 Calma 6 Oeste 0 -- -- 62
2020-01-18 10:00:00 4.4 4 Sur 7 Sudoeste 0 -- -- 67
2020-01-18 09:00:00 3.9 4 Nordeste 6 Noroeste 0 -- -- 68
2020-01-18 08:00:00 3.1 4 Este 7 Este 0 -- -- 72
2020-01-18 07:00:00 3.4 2 Este 7 Este 0 -- -- 71
2020-01-18 06:00:00 3.9 0 Calma 5 Sudeste 0 -- -- 69
2020-01-18 05:00:00 2.9 4 Este 6 Este 0 -- -- 74
2020-01-18 04:00:00 2.4 0 Calma 5 Sur 0 -- -- 78
2020-01-18 03:00:00 3.1 0 Calma 9 Oeste 0 -- -- 79
2020-01-18 02:00:00 4.6 7 Oeste 10 Oeste 0 -- -- 73
2020-01-18 01:00:00 4.5 3 Oeste 14 Oeste 0 -- -- 74
2020-01-18 00:00:00 5 5 Sudoeste 14 Noroeste 0 -- -- 74
2020-01-17 23:00:00 5.3 4 Oeste 17 Noroeste 0 -- -- 75
2020-01-17 22:00:00 5.8 8 Oeste 16 Oeste 0 -- -- 74
2020-01-17 21:00:00 6.1 0 Calma 14 Este 0 -- -- 74
2020-01-17 20:00:00 6.8 5 Este 13 Nordeste 0 -- -- 71
2020-01-17 19:00:00 9.3 11 Norte 49 Noroeste 0 -- -- 54
2020-01-17 18:00:00 10.2 10 Oeste 28 Noroeste 0 -- -- 50
2020-01-17 17:00:00 11.8 11 Oeste 27 Oeste 0 -- -- 49
2020-01-17 16:00:00 12.6 16 Sudoeste 36 Oeste 0 -- -- 50
2020-01-17 15:00:00 12.2 15 Sudoeste 60 Sudoeste 0 -- -- 51
2020-01-17 14:00:00 12.8 15 Oeste 45 Sudoeste 0 -- -- 48
2020-01-17 13:00:00 12.7 24 Sudoeste 45 Sudoeste 0 -- -- 46
2020-01-17 12:00:00 13 16 Sudoeste 33 Sudoeste 0 -- -- 45
2020-01-17 11:00:00 11.6 9 Este 17 Nordeste 0 -- -- 50
2020-01-17 10:00:00 10 4 Este 13 Este 0 -- -- 55
2020-01-17 09:00:00 8 4 Noroeste 22 Oeste 0 -- -- 59
2020-01-17 08:00:00 7.4 4 Sudoeste 17 Noroeste 0 -- -- 60
2020-01-17 07:00:00 6.1 6 Norte 17 Noroeste 0 -- -- 64
2020-01-17 06:00:00 7.2 6 Oeste 12 Oeste 0 -- -- 63
2020-01-17 05:00:00 6.8 2 Norte 8 Este 0 -- -- 63
2020-01-17 04:00:00 7.3 0 Calma 6 Sur 0 -- -- 64
2020-01-17 03:00:00 8.1 2 Nordeste 6 Sudeste 0 -- -- 60
2020-01-17 02:00:00 7.7 2 Sur 7 Sur 0 -- -- 63
2020-01-17 01:00:00 7.7 0 Calma 14 Sudoeste 0 -- -- 63
2020-01-17 00:00:00 7.5 6 Sudeste 9 Sudeste 0 -- -- 69
2020-01-16 23:00:00 7.8 4 Sudeste 8 Sudeste 0 -- -- 69
2020-01-16 22:00:00 7.7 6 Sudeste 11 Sudeste 0 -- -- 72
2020-01-16 21:00:00 9.3 5 Este 8 Este 0 -- -- 68
2020-01-16 20:00:00 10 5 Sudeste 6 Sudeste 0 -- -- 66
2020-01-16 19:00:00 10.7 0 Calma 10 Oeste 0 -- -- 64
2020-01-16 18:00:00 11.6 3 Oeste 17 Nordeste 0 -- -- 61
2020-01-16 17:00:00 12.8 7 Norte 19 Este 0 -- -- 56
2020-01-16 16:00:00 13.7 9 Norte 26 Nordeste 0 -- -- 53
2020-01-16 15:00:00 15.7 7 Nordeste 18 Norte 0 -- -- 46
2020-01-16 14:00:00 15.5 6 Norte 18 Nordeste 0 -- -- 47
2020-01-16 13:00:00 15.1 5 Sudeste 10 Este 0 -- -- 46
2020-01-16 12:00:00 13.4 3 Sudeste 6 Nordeste 0 -- -- 53
2020-01-16 11:00:00 9.9 2 Este 10 Este 0 -- -- 61
2020-01-16 10:00:00 6.8 9 Este 12 Este 0 -- -- 72
2020-01-16 09:00:00 4.9 5 Este 8 Este 0 -- -- 79
2020-01-16 08:00:00 4.8 3 Este 12 Este 0 -- -- 79
2020-01-16 07:00:00 5.3 5 Este 10 Este 0 -- -- 79
2020-01-16 06:00:00 5.5 6 Este 9 Este 0 -- -- 79
2020-01-16 05:00:00 6.1 4 Este 9 Este 0 -- -- 76
2020-01-16 04:00:00 6.5 4 Este 10 Sudoeste 0 -- -- 75
2020-01-16 03:00:00 6.7 3 Sudeste 9 Sudeste 0 -- -- 74
2020-01-16 02:00:00 7.6 3 Sudeste 8 Sudeste 0 -- -- 71
2020-01-16 01:00:00 7.9 5 Este 9 Este 0 -- -- 70
2020-01-16 00:00:00 8.4 0 Calma 6 Este 0 -- -- 67
2020-01-15 23:00:00 8.5 4 Este 10 Este 0 -- -- 65
2020-01-15 22:00:00 8.7 4 Este 12 Este 0 -- -- 62
2020-01-15 21:00:00 9.2 3 Sur 13 Sudoeste 0 -- -- 60
2020-01-15 20:00:00 10.4 8 Oeste 21 Oeste 0 -- -- 57
2020-01-15 19:00:00 11.8 12 Oeste 22 Oeste 0 -- -- 53
2020-01-15 18:00:00 13.1 18 Oeste 26 Oeste 0 -- -- 48
2020-01-15 17:00:00 15 10 Sudoeste 35 Noroeste 0 -- -- 42
2020-01-15 16:00:00 15.4 14 Noroeste 32 Noroeste 0 -- -- 41
2020-01-15 15:00:00 14.8 6 Norte 17 Norte 0 -- -- 39
2020-01-15 14:00:00 13.6 5 Sudeste 12 Oeste 0 -- -- 43
2020-01-15 13:00:00 11.3 5 Norte 13 Norte 0 -- -- 49
2020-01-15 12:00:00 11.9 3 Noroeste 8 Noroeste 0 -- -- 47
2020-01-15 11:00:00 9.8 3 Sudeste 13 Sur 0 -- -- 53
2020-01-15 10:00:00 6.6 4 Sur 9 Sudoeste 0 -- -- 63
2020-01-15 09:00:00 4.2 2 Sudeste 7 Este 0 -- -- 66
2020-01-15 08:00:00 3.6 4 Este 9 Este 0 -- -- 67
2020-01-15 07:00:00 2.6 6 Este 9 Este 0 -- -- 66
2020-01-15 06:00:00 1.4 4 Este 9 Nordeste 0 -- -- 62
2020-01-15 05:00:00 1.2 3 Este 9 Nordeste 0 -- -- 62
2020-01-15 04:00:00 1.2 5 Este 9 Este 0 -- -- 63
2020-01-15 03:00:00 0.9 6 Este 8 Nordeste 0 -- -- 65
2020-01-15 02:00:00 1.5 5 Este 6 Este 0 -- -- 64
2020-01-15 01:00:00 1.6 6 Este 8 Este 0 -- -- 67
2020-01-15 00:00:00 2.9 3 Este 5 Este 0 -- -- 64
2020-01-14 23:00:00 3 0 Calma 6 Este 0 -- -- 63
2020-01-14 22:00:00 3.5 0 Calma 2 Sur 0 -- -- 63
2020-01-14 21:00:00 4.2 0 Calma 0 Calma 0 -- -- 61
2020-01-14 20:00:00 4.9 0 Calma 3 Oeste 0 -- -- 58
2020-01-14 19:00:00 5.2 0 Calma 4 Oeste 0 -- -- 57
2020-01-14 18:00:00 6.9 3 Sudoeste 12 Norte 0 -- -- 51
2020-01-14 17:00:00 10.8 7 Norte 20 Norte 0 -- -- 39
2020-01-14 16:00:00 11.4 8 Norte 23 Norte 0 -- -- 38
2020-01-14 15:00:00 12.2 11 Norte 19 Nordeste 0 -- -- 35
2020-01-14 14:00:00 13.4 6 Norte 14 Norte 0 -- -- 28
2020-01-14 13:00:00 13.3 3 Sur 6 Sudeste 0 -- -- 29
2020-01-14 12:00:00 9.7 3 Este 9 Este 0 -- -- 30
2020-01-14 11:00:00 7.6 3 Este 7 Este 0 -- -- 35
2020-01-14 10:00:00 4.9 5 Este 11 Este 0 -- -- 34
2020-01-14 09:00:00 2.3 3 Sudeste 6 Sudeste 0 -- -- 39
2020-01-14 08:00:00 1.9 0 Calma 9 Norte 0 -- -- 43
2020-01-14 07:00:00 1.9 8 Este 10 Este 0 -- -- 42
2020-01-14 06:00:00 2 4 Nordeste 8 Nordeste 0 -- -- 44
2020-01-14 05:00:00 2.3 5 Este 8 Este 0 -- -- 47
2020-01-14 04:00:00 1.9 6 Este 10 Este 0 -- -- 49
2020-01-14 03:00:00 2.7 3 Nordeste 7 Este 0 -- -- 47
2020-01-14 02:00:00 2.8 4 Este 6 Este 0 -- -- 48
2020-01-14 01:00:00 3.3 3 Este 9 Este 0 -- -- 50
2020-01-14 00:00:00 3.2 4 Este 8 Este 0 -- -- 54
2020-01-13 23:00:00 3.8 7 Este 9 Este 0 -- -- 54
2020-01-13 22:00:00 4.5 3 Este 5 Este 0 -- -- 52
2020-01-13 21:00:00 5.4 0 Calma 4 Nordeste 0 -- -- 50
2020-01-13 20:00:00 6.5 2 Este 4 Sur 0 -- -- 47
2020-01-13 19:00:00 6.4 0 Calma 4 Este 0 -- -- 49
2020-01-13 18:00:00 6.1 0 Calma 6 Sudoeste 0 -- -- 53
2020-01-13 17:00:00 7.5 3 Sudoeste 12 Norte 0 -- -- 49
2020-01-13 16:00:00 10 4 Sudeste 17 Norte 0 -- -- 42
2020-01-13 15:00:00 13.4 4 Nordeste 11 Noroeste 0 -- -- 31
2020-01-13 14:00:00 13 0 Calma 5 Este 0 -- -- 26
2020-01-13 13:00:00 12.1 3 Este 5 Este 0 -- -- 31
2020-01-13 12:00:00 9.9 0 Calma 8 Nordeste 0 -- -- 33
2020-01-13 11:00:00 6.5 4 Este 12 Este 0 -- -- 33
2020-01-13 10:00:00 3.8 7 Este 11 Este 0 -- -- 35
2020-01-13 09:00:00 1 7 Nordeste 9 Nordeste 0 -- -- 42
2020-01-13 08:00:00 0.2 6 Este 8 Este 0 -- -- 44
2020-01-13 07:00:00 0.1 5 Nordeste 9 Este 0 -- -- 45
2020-01-13 06:00:00 0.6 4 Este 8 Este 0 -- -- 44
2020-01-13 05:00:00 0.5 6 Este 10 Nordeste 0 -- -- 45
2020-01-13 04:00:00 0.6 8 Nordeste 9 Nordeste 0 -- -- 45
2020-01-13 03:00:00 0.9 7 Nordeste 9 Este 0 -- -- 45
2020-01-13 02:00:00 1.5 6 Este 9 Este 0 -- -- 44
2020-01-13 01:00:00 1.8 6 Nordeste 10 Nordeste 0 -- -- 43
2020-01-13 00:00:00 1.7 6 Este 11 Nordeste 0 -- -- 45
2020-01-12 23:00:00 2.4 6 Nordeste 8 Este 0 -- -- 45
2020-01-12 22:00:00 3 6 Nordeste 7 Nordeste 0 -- -- 46
2020-01-12 21:00:00 5.2 3 Nordeste 4 Sudeste 0 -- -- 43
2020-01-12 20:00:00 5.8 0 Calma 15 Noroeste 0 -- -- 43
2020-01-12 19:00:00 7 8 Noroeste 14 Noroeste 0 -- -- 36
2020-01-12 18:00:00 7.6 4 Norte 19 Norte 0 -- -- 39
2020-01-12 17:00:00 11.4 9 Norte 23 Norte 0 -- -- 33
2020-01-12 16:00:00 12.2 6 Norte 17 Norte 0 -- -- 27
2020-01-12 15:00:00 11.9 4 Nordeste 16 Norte 0 -- -- 30
2020-01-12 14:00:00 11.4 4 Nordeste 13 Nordeste 0 -- -- 30
2020-01-12 13:00:00 10.1 4 Este 9 Este 0 -- -- 32
2020-01-12 12:00:00 8.8 3 Sudeste 8 Este 0 -- -- 39
2020-01-12 11:00:00 6 5 Este 10 Este 0 -- -- 40
2020-01-12 10:00:00 3.3 9 Este 12 Nordeste 0 -- -- 44
2020-01-12 09:00:00 1.4 6 Este 9 Este 0 -- -- 49
2020-01-12 08:00:00 0.9 2 Este 4 Nordeste 0 -- -- 52
2020-01-12 07:00:00 1.3 0 Calma 4 Este 0 -- -- 52
2020-01-12 06:00:00 1.5 4 Este 8 Este 0 -- -- 52
2020-01-12 05:00:00 1.4 4 Este 8 Este 0 -- -- 57
2020-01-12 04:00:00 1.5 6 Este 8 Este 0 -- -- 57
2020-01-12 03:00:00 1.8 5 Este 6 Este 0 -- -- 59
2020-01-12 02:00:00 2 4 Este 8 Este 0 -- -- 60
2020-01-12 01:00:00 1.7 7 Este 8 Nordeste 0 -- -- 66
2020-01-12 00:00:00 2.2 6 Este 9 Nordeste 0 -- -- 68
2020-01-11 23:00:00 2.3 7 Nordeste 10 Este 0 -- -- 71
2020-01-11 22:00:00 3.4 4 Este 5 Este 0 -- -- 69
2020-01-11 21:00:00 4.4 0 Calma 2 Este 0 -- -- 67
2020-01-11 20:00:00 5.3 0 Calma 8 Norte 0 -- -- 64
2020-01-11 19:00:00 6.2 3 Norte 9 Norte 0 -- -- 60
2020-01-11 18:00:00 8 2 Nordeste 9 Este 0 -- -- 54
2020-01-11 17:00:00 10.3 2 Este 20 Nordeste 0 -- -- 48
2020-01-11 16:00:00 10.7 9 Nordeste 21 Este 0 -- -- 42
2020-01-11 15:00:00 11.8 10 Noroeste 17 Noroeste 0 -- -- 41
2020-01-11 14:00:00 10.8 6 Norte 18 Noroeste 0 -- -- 44
2020-01-11 13:00:00 9.8 5 Norte 24 Oeste 0 -- -- 48
2020-01-11 12:00:00 7.5 12 Oeste 21 Norte 0 -- -- 53
2020-01-11 11:00:00 5.8 8 Sudeste 24 Sudeste 0 -- -- 62
2020-01-11 10:00:00 3.9 2 Sudeste 8 Este 0 -- -- 70
2020-01-11 09:00:00 2.4 3 Este 9 Este 0 -- -- 77
2020-01-11 08:00:00 1.6 4 Este 14 Sudeste 0 -- -- 79
2020-01-11 07:00:00 2.9 2 Norte 14 Sudeste 0 -- -- 73
2020-01-11 06:00:00 3.3 5 Oeste 24 Noroeste 0 -- -- 73
2020-01-11 05:00:00 3.4 4 Oeste 17 Sudeste 0 -- -- 74
2020-01-11 04:00:00 3.8 5 Sudeste 23 Noroeste 0 -- -- 73
2020-01-11 03:00:00 4 8 Noroeste 31 Oeste 0 -- -- 76
2020-01-11 02:00:00 4 9 Oeste 40 Oeste 0 -- -- 78
2020-01-11 01:00:00 4.2 15 Oeste 39 Noroeste 0 -- -- 78
2020-01-11 00:00:00 4.1 3 Sudeste 26 Oeste 0 -- -- 78
2020-01-10 23:00:00 4.6 12 Oeste 31 Noroeste 0 -- -- 77
2020-01-10 22:00:00 4.8 18 Oeste 31 Noroeste 0 -- -- 78
2020-01-10 21:00:00 5.3 13 Oeste 29 Oeste 0 -- -- 76
2020-01-10 20:00:00 6 8 Oeste 24 Oeste 0 -- -- 74
2020-01-10 19:00:00 6.4 7 Noroeste 24 Noroeste 0 -- -- 72
2020-01-10 18:00:00 6.5 15 Noroeste 32 Oeste 0 -- -- 71
2020-01-10 17:00:00 7.9 13 Oeste 38 Oeste 0 -- -- 65
2020-01-10 16:00:00 7.1 16 Oeste 49 Oeste 0 -- -- 67
2020-01-10 15:00:00 7 17 Noroeste 45 Oeste 0 -- -- 66
2020-01-10 14:00:00 7.3 15 Oeste 39 Oeste 0 -- -- 64
2020-01-10 13:00:00 6.8 19 Noroeste 48 Noroeste 0 -- -- 66
2020-01-10 12:00:00 6.5 27 Noroeste 59 Oeste 0 -- -- 65
2020-01-10 11:00:00 6.3 15 Noroeste 51 Noroeste 0 -- -- 66
2020-01-10 10:00:00 5.5 18 Oeste 45 Noroeste 0 -- -- 68
2020-01-10 09:00:00 5.3 24 Oeste 45 Noroeste 0 -- -- 71
2020-01-10 08:00:00 5.6 15 Oeste 41 Oeste 0 -- -- 72
2020-01-10 07:00:00 5.8 7 Oeste 38 Noroeste 0 -- -- 73
2020-01-10 06:00:00 5.8 13 Sudoeste 49 Oeste 0 -- -- 72
2020-01-10 05:00:00 5.8 28 Oeste 56 Oeste 0 -- -- 72
2020-01-10 04:00:00 6 30 Oeste 50 Oeste 0 -- -- 78
2020-01-10 03:00:00 7.8 9 Noroeste 37 Noroeste 0 -- -- 63
2020-01-10 02:00:00 10.5 24 Oeste 35 Noroeste 0 -- -- 61
2020-01-10 01:00:00 8 4 Este 15 Oeste 0 -- -- 58
2020-01-10 00:00:00 8.4 0 Calma 8 Este 0 -- -- 55
2020-01-09 23:00:00 7.4 0 Calma 6 Noroeste 0 -- -- 60
2020-01-09 22:00:00 9 6 Oeste 17 Norte 0 -- -- 53
2020-01-09 21:00:00 8.7 0 Calma 4 Sudeste 0 -- -- 51
2020-01-09 20:00:00 9.1 3 Sudoeste 10 Oeste 0 -- -- 49
2020-01-09 19:00:00 9.9 5 Oeste 12 Norte 0 -- -- 48
2020-01-09 18:00:00 12.8 4 Norte 8 Norte 0 -- -- 33
2020-01-09 17:00:00 14.9 4 Sudoeste 8 Sur 0 -- -- 39
2020-01-09 16:00:00 16.2 4 Norte 16 Norte 0 -- -- 28
2020-01-09 15:00:00 15.7 5 Norte 14 Norte 0 -- -- 37
2020-01-09 14:00:00 15.8 5 Norte 10 Norte 0 -- -- 29
2020-01-09 13:00:00 14.2 4 Este 8 Este 0 -- -- 30
2020-01-09 12:00:00 11.5 4 Este 7 Este 0 -- -- 44
2020-01-09 11:00:00 9.4 2 Sudeste 7 Este 0 -- -- 55
2020-01-09 10:00:00 6.2 5 Este 10 Este 0 -- -- 62
2020-01-09 09:00:00 3.4 5 Este 10 Este 0 -- -- 73
2020-01-09 08:00:00 2.9 5 Este 8 Este 0 -- -- 76
2020-01-09 07:00:00 3.5 6 Nordeste 8 Este 0 -- -- 76
2020-01-09 06:00:00 3.9 5 Este 11 Este 0 -- -- 75
2020-01-09 05:00:00 4.3 4 Este 10 Sudeste 0 -- -- 75
2020-01-09 04:00:00 4.1 2 Este 10 Este 0 -- -- 80
2020-01-09 03:00:00 4.4 4 Este 9 Sudoeste 0 -- -- 80
2020-01-09 02:00:00 4.5 2 Sudeste 8 Sudeste 0 -- -- 83
2020-01-09 01:00:00 4.9 3 Sudeste 8 Sur 0 -- -- 86
2020-01-09 00:00:00 5.6 3 Sudoeste 10 Oeste 0 -- -- 84
2020-01-08 23:00:00 6.7 4 Sudoeste 8 Sudoeste 0 -- -- 83
2020-01-08 22:00:00 6.6 2 Sudeste 6 Sudeste 0 -- -- 81
2020-01-08 21:00:00 7.9 4 Sur 9 Sudeste 0 -- -- 76
2020-01-08 20:00:00 8.5 3 Sudeste 14 Este 0 -- -- 72
2020-01-08 19:00:00 9 9 Este 15 Este 0 -- -- 70
2020-01-08 18:00:00 10.3 4 Sur 10 Este 0 -- -- 67
2020-01-08 17:00:00 12.8 5 Oeste 17 Norte 0 -- -- 60
2020-01-08 16:00:00 13.8 8 Norte 16 Norte 0 -- -- 57
2020-01-08 15:00:00 14.2 5 Norte 16 Norte 0 -- -- 57
2020-01-08 14:00:00 14.2 7 Norte 15 Nordeste 0 -- -- 57
2020-01-08 13:00:00 14 8 Este 14 Este 0 -- -- 58
2020-01-08 12:00:00 13.4 4 Sudeste 9 Este 0 -- -- 59
2020-01-08 11:00:00 11 0 Calma 12 Oeste 0 -- -- 67
2020-01-08 10:00:00 8.9 5 Noroeste 13 Noroeste 0 -- -- 77
2020-01-08 09:00:00 7.6 2 Este 9 Este 0 -- -- 76
2020-01-08 08:00:00 6.8 3 Este 8 Este 0 -- -- 72
2020-01-08 07:00:00 6.4 3 Nordeste 9 Sudeste 0 -- -- 71
2020-01-08 06:00:00 6.3 4 Sudeste 8 Sudeste 0 -- -- 69
2020-01-08 05:00:00 6.4 2 Sudeste 14 Noroeste 0 -- -- 68
2020-01-08 04:00:00 7.2 0 Calma 6 Este 0 -- -- 66
2020-01-08 03:00:00 7.1 6 Nordeste 9 Nordeste 0 -- -- 64
2020-01-08 02:00:00 7.5 3 Este 8 Sudeste 0 -- -- 58
2020-01-08 01:00:00 8.8 4 Este 7 Este 0 -- -- 56
2020-01-08 00:00:00 8.8 2 Sudeste 8 Este 0 -- -- 55
2020-01-07 23:00:00 8.6 3 Nordeste 9 Oeste 0 -- -- 51
2020-01-07 22:00:00 9.2 3 Nordeste 8 Este 0 -- -- 49
2020-01-07 21:00:00 8.8 3 Este 8 Este 0 -- -- 51
2020-01-07 20:00:00 9.3 2 Este 5 Oeste 0 -- -- 49
2020-01-07 19:00:00 9.6 0 Calma 7 Oeste 0 -- -- 49
2020-01-07 18:00:00 11.2 2 Oeste 5 Noroeste 0 -- -- 44
2020-01-07 17:00:00 14.2 0 Calma 6 Sur 0 -- -- 40
2020-01-07 16:00:00 13.6 3 Este 6 Sur 0 -- -- 41
2020-01-07 15:00:00 12.8 3 Este 16 Norte 0 -- -- 43
2020-01-07 14:00:00 11.5 6 Norte 18 Norte 0 -- -- 44
2020-01-07 13:00:00 11.7 3 Este 7 Nordeste 0 -- -- 39
2020-01-07 12:00:00 10.7 3 Sudeste 8 Sur 0 -- -- 48
2020-01-07 11:00:00 7.4 2 Este 4 Este 0 -- -- 53
2020-01-07 10:00:00 4.9 3 Este 8 Este 0 -- -- 56
2020-01-07 09:00:00 2 3 Este 6 Este 0 -- -- 65
2020-01-07 08:00:00 1.9 3 Nordeste 4 Nordeste 0 -- -- 64
2020-01-07 07:00:00 2.5 0 Calma 2 Sudeste 0 -- -- 62
2020-01-07 06:00:00 2.6 0 Calma 9 Este 0 -- -- 62
2020-01-07 05:00:00 2.2 8 Este 10 Este 0 -- -- 67
2020-01-07 04:00:00 2.1 3 Sur 6 Este 0 -- -- 70
2020-01-07 03:00:00 3.7 0 Calma 3 Oeste 0 -- -- 69
2020-01-07 02:00:00 3.1 3 Oeste 5 Este 0 -- -- 74
2020-01-07 01:00:00 3 3 Este 5 Nordeste 0 -- -- 76
2020-01-07 00:00:00 3.2 0 Calma 3 Nordeste 0 -- -- 74
2020-01-06 23:00:00 3.5 0 Calma 8 Oeste 0 -- -- 78
2020-01-06 22:00:00 3.5 3 Oeste 6 Este 0 -- -- 78
2020-01-06 21:00:00 5.6 5 Este 6 Este 0 -- -- 71
2020-01-06 20:00:00 6.9 2 Este 4 Sudeste 0 -- -- 66
2020-01-06 19:00:00 6.6 0 Calma 4 Oeste 0 -- -- 67
2020-01-06 18:00:00 7.9 0 Calma 5 Sur 0 -- -- 62
2020-01-06 17:00:00 11.2 3 Sudoeste 13 Norte 0 -- -- 54
2020-01-06 16:00:00 12.9 4 Nordeste 20 Noroeste 0 -- -- 48
2020-01-06 15:00:00 14.8 5 Norte 13 Norte 0 -- -- 41
2020-01-06 14:00:00 14.6 3 Sur 10 Norte 0 -- -- 42
2020-01-06 13:00:00 13.2 4 Norte 10 Noroeste 0 -- -- 45
2020-01-06 12:00:00 10.7 3 Este 5 Este 0 -- -- 47
2020-01-06 11:00:00 8.9 2 Este 7 Este 0 -- -- 53
2020-01-06 10:00:00 6 6 Este 7 Este 0 -- -- 56